sensor_id;sensor_type;location;lat;lon;timestamp;pressure;altitude;pressure_sealevel;temperature;humidity
20656;BME280;10487;53.320;8.672;2023-01-01T00:01:46;100266.19;;;12.05;62.80
20656;BME280;10487;53.320;8.672;2023-01-01T00:04:48;100275.19;;;12.04;63.02
20656;BME280;10487;53.320;8.672;2023-01-01T00:07:49;100269.00;;;12.04;62.95
20656;BME280;10487;53.320;8.672;2023-01-01T00:10:51;100277.03;;;12.04;63.16
20656;BME280;10487;53.320;8.672;2023-01-01T00:13:52;100264.63;;;12.03;63.15
20656;BME280;10487;53.320;8.672;2023-01-01T00:16:54;100280.81;;;12.01;62.93
20656;BME280;10487;53.320;8.672;2023-01-01T00:19:56;100279.97;;;12.01;62.99
20656;BME280;10487;53.320;8.672;2023-01-01T00:22:58;100274.47;;;12.02;62.83
20656;BME280;10487;53.320;8.672;2023-01-01T00:26:00;100293.91;;;12.04;63.04
20656;BME280;10487;53.320;8.672;2023-01-01T00:29:02;100282.38;;;12.04;63.07
20656;BME280;10487;53.320;8.672;2023-01-01T00:32:04;100277.88;;;12.04;62.64
20656;BME280;10487;53.320;8.672;2023-01-01T00:35:11;100308.00;;;12.06;62.75
20656;BME280;10487;53.320;8.672;2023-01-01T00:38:13;100286.59;;;12.06;62.60
20656;BME280;10487;53.320;8.672;2023-01-01T00:41:16;100292.81;;;12.07;62.71
20656;BME280;10487;53.320;8.672;2023-01-01T00:44:18;100302.66;;;12.06;62.87
20656;BME280;10487;53.320;8.672;2023-01-01T00:47:19;100317.69;;;12.07;62.56
20656;BME280;10487;53.320;8.672;2023-01-01T00:50:21;100308.84;;;12.07;62.68
20656;BME280;10487;53.320;8.672;2023-01-01T00:53:23;100315.03;;;12.07;62.53
20656;BME280;10487;53.320;8.672;2023-01-01T00:56:25;100330.25;;;12.07;62.82
20656;BME280;10487;53.320;8.672;2023-01-01T00:59:26;100328.53;;;12.06;62.43
20656;BME280;10487;53.320;8.672;2023-01-01T01:02:29;100332.91;;;12.07;62.45
20656;BME280;10487;53.320;8.672;2023-01-01T01:05:32;100323.19;;;12.06;62.75
20656;BME280;10487;53.320;8.672;2023-01-01T01:08:35;100327.69;;;12.05;62.53
20656;BME280;10487;53.320;8.672;2023-01-01T01:11:37;100332.19;;;12.05;62.40
20656;BME280;10487;53.320;8.672;2023-01-01T01:14:39;100330.50;;;12.04;62.55
20656;BME280;10487;53.320;8.672;2023-01-01T01:17:41;100356.38;;;12.03;62.44
20656;BME280;10487;53.320;8.672;2023-01-01T01:20:49;100338.63;;;12.02;62.57
20656;BME280;10487;53.320;8.672;2023-01-01T01:23:52;100343.88;;;12.04;62.77
20656;BME280;10487;53.320;8.672;2023-01-01T01:26:54;100342.88;;;12.05;62.28
20656;BME280;10487;53.320;8.672;2023-01-01T01:29:56;100342.88;;;12.05;62.39
20656;BME280;10487;53.320;8.672;2023-01-01T01:32:57;100333.88;;;12.06;62.69
20656;BME280;10487;53.320;8.672;2023-01-01T01:35:59;100328.53;;;12.06;62.65
20656;BME280;10487;53.320;8.672;2023-01-01T01:39:01;100342.75;;;12.06;62.37
20656;BME280;10487;53.320;8.672;2023-01-01T01:42:03;100327.56;;;12.07;62.53
20656;BME280;10487;53.320;8.672;2023-01-01T01:45:05;100343.63;;;12.07;62.22
20656;BME280;10487;53.320;8.672;2023-01-01T01:48:07;100329.41;;;12.06;62.33
20656;BME280;10487;53.320;8.672;2023-01-01T01:51:11;100344.59;;;12.06;62.17
20656;BME280;10487;53.320;8.672;2023-01-01T01:54:18;100343.72;;;12.05;62.24
20656;BME280;10487;53.320;8.672;2023-01-01T01:57:23;100360.78;;;12.04;62.11
20656;BME280;10487;53.320;8.672;2023-01-01T02:00:24;100366.94;;;12.05;62.12
20656;BME280;10487;53.320;8.672;2023-01-01T02:03:48;100376.66;;;12.06;62.13
20656;BME280;10487;53.320;8.672;2023-01-01T02:06:52;100380.31;;;12.05;62.13
20656;BME280;10487;53.320;8.672;2023-01-01T02:09:55;100380.31;;;12.05;62.39
20656;BME280;10487;53.320;8.672;2023-01-01T02:12:56;100384.84;;;12.04;62.02
20656;BME280;10487;53.320;8.672;2023-01-01T02:16:05;100383.84;;;12.05;62.20
20656;BME280;10487;53.320;8.672;2023-01-01T02:23:21;100387.50;;;12.04;62.11
20656;BME280;10487;53.320;8.672;2023-01-01T02:29:53;100384.25;;;12.01;61.89
20656;BME280;10487;53.320;8.672;2023-01-01T02:33:01;100378.88;;;12.01;62.04
20656;BME280;10487;53.320;8.672;2023-01-01T02:36:05;100382.53;;;12.00;61.94
20656;BME280;10487;53.320;8.672;2023-01-01T02:39:08;100386.06;;;12.00;61.88
20656;BME280;10487;53.320;8.672;2023-01-01T02:42:11;100379.16;;;11.98;62.00
20656;BME280;10487;53.320;8.672;2023-01-01T02:45:13;100393.50;;;11.97;61.89
20656;BME280;10487;53.320;8.672;2023-01-01T02:55:03;100405.56;;;11.91;61.88
20656;BME280;10487;53.320;8.672;2023-01-01T03:01:59;100395.63;;;11.82;62.03
20656;BME280;10487;53.320;8.672;2023-01-01T03:05:28;100410.09;;;11.79;61.90
20656;BME280;10487;53.320;8.672;2023-01-01T03:08:40;100405.88;;;11.77;61.92
20656;BME280;10487;53.320;8.672;2023-01-01T03:12:05;100402.47;;;11.75;62.04
20656;BME280;10487;53.320;8.672;2023-01-01T03:15:25;100421.47;;;11.72;62.14
20656;BME280;10487;53.320;8.672;2023-01-01T03:18:34;100402.84;;;11.70;62.07
20656;BME280;10487;53.320;8.672;2023-01-01T03:25:08;100414.78;;;11.66;61.95
20656;BME280;10487;53.320;8.672;2023-01-01T03:28:22;100419.16;;;11.67;61.91
20656;BME280;10487;53.320;8.672;2023-01-01T03:31:25;100421.09;;;11.65;62.31
20656;BME280;10487;53.320;8.672;2023-01-01T03:34:32;100418.31;;;11.67;61.78
20656;BME280;10487;53.320;8.672;2023-01-01T03:37:35;100412.13;;;11.66;62.13
20656;BME280;10487;53.320;8.672;2023-01-01T03:40:38;100409.44;;;11.66;61.89
20656;BME280;10487;53.320;8.672;2023-01-01T03:43:48;100422.81;;;11.66;62.21
20656;BME280;10487;53.320;8.672;2023-01-01T03:46:53;100419.41;;;11.64;61.78
20656;BME280;10487;53.320;8.672;2023-01-01T03:49:56;100428.16;;;11.66;62.04
20656;BME280;10487;53.320;8.672;2023-01-01T03:53:11;100427.28;;;11.66;61.95
20656;BME280;10487;53.320;8.672;2023-01-01T03:56:44;100431.94;;;11.64;61.84
20656;BME280;10487;53.320;8.672;2023-01-01T03:59:52;100423.91;;;11.64;61.81
20656;BME280;10487;53.320;8.672;2023-01-01T04:03:06;100428.41;;;11.63;61.83
20656;BME280;10487;53.320;8.672;2023-01-01T04:06:10;100444.44;;;11.63;62.17
20656;BME280;10487;53.320;8.672;2023-01-01T04:09:15;100429.38;;;11.62;61.85
20656;BME280;10487;53.320;8.672;2023-01-01T04:12:18;100409.84;;;11.62;61.70
20656;BME280;10487;53.320;8.672;2023-01-01T04:15:26;100421.34;;;11.62;62.11
20656;BME280;10487;53.320;8.672;2023-01-01T04:18:27;100426.69;;;11.62;61.77
20656;BME280;10487;53.320;8.672;2023-01-01T04:21:29;100431.06;;;11.63;61.64
20656;BME280;10487;53.320;8.672;2023-01-01T04:24:30;100419.53;;;11.63;61.92
20656;BME280;10487;53.320;8.672;2023-01-01T04:27:32;100428.25;;;11.65;62.02
20656;BME280;10487;53.320;8.672;2023-01-01T04:30:34;100430.81;;;11.66;61.57
20656;BME280;10487;53.320;8.672;2023-01-01T04:33:37;100427.16;;;11.67;61.57
20656;BME280;10487;53.320;8.672;2023-01-01T04:36:39;100416.34;;;11.69;61.89
20656;BME280;10487;53.320;8.672;2023-01-01T04:39:40;100428.72;;;11.70;61.50
20656;BME280;10487;53.320;8.672;2023-01-01T04:42:42;100418.91;;;11.70;61.72
20656;BME280;10487;53.320;8.672;2023-01-01T04:45:54;100419.75;;;11.71;61.49
20656;BME280;10487;53.320;8.672;2023-01-01T04:48:56;100427.75;;;11.71;61.68
20656;BME280;10487;53.320;8.672;2023-01-01T04:51:57;100423.13;;;11.73;61.45
20656;BME280;10487;53.320;8.672;2023-01-01T04:54:59;100413.28;;;11.73;61.39
20656;BME280;10487;53.320;8.672;2023-01-01T04:58:01;100410.47;;;11.75;61.58
20656;BME280;10487;53.320;8.672;2023-01-01T05:01:03;100413.06;;;11.76;61.69
20656;BME280;10487;53.320;8.672;2023-01-01T05:04:05;100413.06;;;11.76;61.22
20656;BME280;10487;53.320;8.672;2023-01-01T05:07:07;100421.78;;;11.78;61.47
20656;BME280;10487;53.320;8.672;2023-01-01T05:10:08;100427.00;;;11.80;61.51
20656;BME280;10487;53.320;8.672;2023-01-01T05:13:10;100441.91;;;11.82;61.35
20656;BME280;10487;53.320;8.672;2023-01-01T05:16:14;100435.63;;;11.83;61.29
20656;BME280;10487;53.320;8.672;2023-01-01T05:19:16;100455.03;;;11.86;61.36
20656;BME280;10487;53.320;8.672;2023-01-01T05:22:17;100453.06;;;11.88;61.33
20656;BME280;10487;53.320;8.672;2023-01-01T05:25:19;100455.66;;;11.89;61.10
20656;BME280;10487;53.320;8.672;2023-01-01T05:28:21;100443.00;;;11.91;60.94
20656;BME280;10487;53.320;8.672;2023-01-01T05:31:29;100448.19;;;11.93;61.27
20656;BME280;10487;53.320;8.672;2023-01-01T05:34:31;100457.94;;;11.94;60.84
20656;BME280;10487;53.320;8.672;2023-01-01T05:37:32;100457.06;;;11.93;61.04
20656;BME280;10487;53.320;8.672;2023-01-01T05:40:33;100473.97;;;11.94;60.98
20656;BME280;10487;53.320;8.672;2023-01-01T05:43:35;100474.81;;;11.94;60.78
20656;BME280;10487;53.320;8.672;2023-01-01T05:46:37;100473.53;;;12.09;60.51
20656;BME280;10487;53.320;8.672;2023-01-01T05:49:39;100482.53;;;12.08;60.92
20656;BME280;10487;53.320;8.672;2023-01-01T05:52:40;100497.72;;;12.08;60.84
20656;BME280;10487;53.320;8.672;2023-01-01T05:55:42;100508.41;;;12.08;60.49
20656;BME280;10487;53.320;8.672;2023-01-01T05:58:45;100492.38;;;12.08;60.65
20656;BME280;10487;53.320;8.672;2023-01-01T06:01:46;100510.38;;;12.06;60.48
20656;BME280;10487;53.320;8.672;2023-01-01T06:04:48;100539.06;;;12.04;60.62
20656;BME280;10487;53.320;8.672;2023-01-01T06:07:50;100532.16;;;12.01;60.59
20656;BME280;10487;53.320;8.672;2023-01-01T06:11:06;100533.25;;;11.99;60.43
20656;BME280;10487;53.320;8.672;2023-01-01T06:14:08;100529.88;;;11.97;60.41
20656;BME280;10487;53.320;8.672;2023-01-01T06:17:10;100532.78;;;11.94;60.48
20656;BME280;10487;53.320;8.672;2023-01-01T06:20:11;100518.56;;;11.93;60.44
20656;BME280;10487;53.320;8.672;2023-01-01T06:23:13;100503.63;;;11.91;60.46
20656;BME280;10487;53.320;8.672;2023-01-01T06:29:18;100514.56;;;11.88;60.55
20656;BME280;10487;53.320;8.672;2023-01-01T06:32:19;100511.91;;;11.88;60.60
20656;BME280;10487;53.320;8.672;2023-01-01T06:35:21;100524.53;;;11.86;60.62
20656;BME280;10487;53.320;8.672;2023-01-01T06:38:23;100538.88;;;11.84;60.34
20656;BME280;10487;53.320;8.672;2023-01-01T06:41:26;100526.34;;;11.85;60.23
20656;BME280;10487;53.320;8.672;2023-01-01T06:44:28;100528.31;;;11.83;60.16
20656;BME280;10487;53.320;8.672;2023-01-01T06:47:32;100544.34;;;11.83;60.20
20656;BME280;10487;53.320;8.672;2023-01-01T06:50:38;100558.56;;;11.83;60.47
20656;BME280;10487;53.320;8.672;2023-01-01T06:53:40;100551.53;;;11.82;60.17
20656;BME280;10487;53.320;8.672;2023-01-01T06:56:41;100560.53;;;11.81;60.27
20656;BME280;10487;53.320;8.672;2023-01-01T06:59:43;100549.09;;;11.79;60.05
20656;BME280;10487;53.320;8.672;2023-01-01T07:02:47;100562.59;;;11.78;60.08
20656;BME280;10487;53.320;8.672;2023-01-01T07:05:49;100589.47;;;11.76;60.31
20656;BME280;10487;53.320;8.672;2023-01-01T07:08:51;100593.09;;;11.75;60.19
20656;BME280;10487;53.320;8.672;2023-01-01T07:11:53;100594.19;;;11.73;60.27
20656;BME280;10487;53.320;8.672;2023-01-01T07:14:54;100587.03;;;11.73;60.26
20656;BME280;10487;53.320;8.672;2023-01-01T07:17:56;100606.69;;;11.72;60.20
20656;BME280;10487;53.320;8.672;2023-01-01T07:20:59;100608.66;;;11.70;60.00
20656;BME280;10487;53.320;8.672;2023-01-01T07:24:03;100626.50;;;11.70;59.86
20656;BME280;10487;53.320;8.672;2023-01-01T07:27:06;100632.44;;;11.96;59.91
20656;BME280;10487;53.320;8.672;2023-01-01T07:30:08;100638.16;;;11.91;59.73
20656;BME280;10487;53.320;8.672;2023-01-01T07:33:12;100642.88;;;11.88;59.63
20656;BME280;10487;53.320;8.672;2023-01-01T07:36:14;100654.91;;;11.82;59.55
20656;BME280;10487;53.320;8.672;2023-01-01T07:39:15;100657.25;;;11.75;59.86
20656;BME280;10487;53.320;8.672;2023-01-01T07:42:17;100668.44;;;11.69;59.63
20656;BME280;10487;53.320;8.672;2023-01-01T07:45:19;100688.47;;;11.64;59.65
20656;BME280;10487;53.320;8.672;2023-01-01T07:48:20;100689.66;;;11.60;59.85
20656;BME280;10487;53.320;8.672;2023-01-01T07:51:23;100691.03;;;11.54;59.77
20656;BME280;10487;53.320;8.672;2023-01-01T07:54:25;100692.13;;;11.52;60.17
20656;BME280;10487;53.320;8.672;2023-01-01T07:57:26;100692.41;;;11.47;59.91
20656;BME280;10487;53.320;8.672;2023-01-01T08:00:28;100686.34;;;11.45;59.79
20656;BME280;10487;53.320;8.672;2023-01-01T08:03:30;100688.44;;;11.42;59.81
20656;BME280;10487;53.320;8.672;2023-01-01T08:06:31;100696.69;;;11.39;59.99
20656;BME280;10487;53.320;8.672;2023-01-01T08:09:33;100701.28;;;11.37;59.96
20656;BME280;10487;53.320;8.672;2023-01-01T08:12:35;100724.59;;;11.35;59.77
20656;BME280;10487;53.320;8.672;2023-01-01T08:15:36;100723.03;;;11.32;59.68
20656;BME280;10487;53.320;8.672;2023-01-01T08:18:38;100721.44;;;11.30;59.81
20656;BME280;10487;53.320;8.672;2023-01-01T08:21:40;100744.84;;;11.26;59.69
20656;BME280;10487;53.320;8.672;2023-01-01T08:24:42;100765.50;;;11.24;59.84
20656;BME280;10487;53.320;8.672;2023-01-01T08:27:43;100763.03;;;11.21;59.63
20656;BME280;10487;53.320;8.672;2023-01-01T08:30:45;100761.31;;;11.20;59.77
20656;BME280;10487;53.320;8.672;2023-01-01T08:33:46;100756.97;;;11.19;59.68
20656;BME280;10487;53.320;8.672;2023-01-01T08:36:48;100777.47;;;11.18;59.89
20656;BME280;10487;53.320;8.672;2023-01-01T08:39:50;100784.63;;;11.18;59.88
20656;BME280;10487;53.320;8.672;2023-01-01T08:42:52;100798.00;;;11.18;59.75
20656;BME280;10487;53.320;8.672;2023-01-01T08:45:54;100798.13;;;11.16;59.82
20656;BME280;10487;53.320;8.672;2023-01-01T08:48:55;100804.41;;;11.15;59.52
20656;BME280;10487;53.320;8.672;2023-01-01T08:51:57;100813.41;;;11.14;59.74
20656;BME280;10487;53.320;8.672;2023-01-01T08:54:58;100825.16;;;11.12;59.85
20656;BME280;10487;53.320;8.672;2023-01-01T08:58:05;100818.13;;;11.11;59.55
20656;BME280;10487;53.320;8.672;2023-01-01T09:01:07;100812.91;;;11.09;59.49
20656;BME280;10487;53.320;8.672;2023-01-01T09:04:09;100835.13;;;11.10;59.63
20656;BME280;10487;53.320;8.672;2023-01-01T09:07:16;100849.44;;;11.09;59.69
20656;BME280;10487;53.320;8.672;2023-01-01T09:10:17;100853.03;;;11.08;59.63
20656;BME280;10487;53.320;8.672;2023-01-01T09:13:20;100858.50;;;11.06;59.54
20656;BME280;10487;53.320;8.672;2023-01-01T09:16:22;100873.25;;;11.12;59.62
20656;BME280;10487;53.320;8.672;2023-01-01T09:19:24;100880.78;;;11.18;59.60
20656;BME280;10487;53.320;8.672;2023-01-01T09:22:25;100884.19;;;11.20;59.39
20656;BME280;10487;53.320;8.672;2023-01-01T09:25:27;100875.34;;;11.19;59.49
20656;BME280;10487;53.320;8.672;2023-01-01T09:28:29;100887.84;;;11.19;59.41
20656;BME280;10487;53.320;8.672;2023-01-01T09:31:31;100901.41;;;11.16;59.39
20656;BME280;10487;53.320;8.672;2023-01-01T09:34:32;100889.00;;;11.15;59.33
20656;BME280;10487;53.320;8.672;2023-01-01T09:37:34;100898.97;;;11.13;59.25
20656;BME280;10487;53.320;8.672;2023-01-01T09:47:25;100920.44;;;11.11;59.25
20656;BME280;10487;53.320;8.672;2023-01-01T09:50:37;100932.94;;;11.11;59.28
20656;BME280;10487;53.320;8.672;2023-01-01T09:53:44;100916.91;;;11.11;59.29
20656;BME280;10487;53.320;8.672;2023-01-01T09:56:52;100920.97;;;11.16;59.45
20656;BME280;10487;53.320;8.672;2023-01-01T09:59:58;100925.44;;;11.16;59.14
20656;BME280;10487;53.320;8.672;2023-01-01T10:03:20;100931.66;;;11.16;59.32
20656;BME280;10487;53.320;8.672;2023-01-01T10:06:31;100928.97;;;11.16;59.15
20656;BME280;10487;53.320;8.672;2023-01-01T10:09:49;100939.53;;;11.18;59.15
20656;BME280;10487;53.320;8.672;2023-01-01T10:19:37;100938.88;;;11.27;59.01
20656;BME280;10487;53.320;8.672;2023-01-01T10:22:43;100938.53;;;11.32;59.05
20656;BME280;10487;53.320;8.672;2023-01-01T10:25:47;100932.84;;;11.36;58.96
20656;BME280;10487;53.320;8.672;2023-01-01T10:31:57;100953.88;;;11.41;58.79
20656;BME280;10487;53.320;8.672;2023-01-01T10:35:14;100939.34;;;11.45;58.66
20656;BME280;10487;53.320;8.672;2023-01-01T10:38:22;100940.91;;;11.47;58.84
20656;BME280;10487;53.320;8.672;2023-01-01T10:41:24;100960.47;;;11.48;58.78
20656;BME280;10487;53.320;8.672;2023-01-01T10:44:33;100946.25;;;11.47;58.77
20656;BME280;10487;53.320;8.672;2023-01-01T10:47:35;100956.94;;;11.47;58.77
20656;BME280;10487;53.320;8.672;2023-01-01T10:51:06;100942.75;;;11.47;58.84
20656;BME280;10487;53.320;8.672;2023-01-01T10:54:35;100951.72;;;11.46;58.55
20656;BME280;10487;53.320;8.672;2023-01-01T10:57:37;100945.53;;;11.45;58.56
20656;BME280;10487;53.320;8.672;2023-01-01T11:00:40;100953.66;;;11.44;58.40
20656;BME280;10487;53.320;8.672;2023-01-01T11:07:05;100980.59;;;11.41;58.72
20656;BME280;10487;53.320;8.672;2023-01-01T11:10:18;100982.53;;;11.39;58.56
20656;BME280;10487;53.320;8.672;2023-01-01T11:13:20;100986.28;;;11.36;58.41
20656;BME280;10487;53.320;8.672;2023-01-01T11:16:22;100972.94;;;11.36;58.42
20656;BME280;10487;53.320;8.672;2023-01-01T11:19:32;101000.38;;;11.38;58.29
20656;BME280;10487;53.320;8.672;2023-01-01T11:22:48;101004.84;;;11.38;58.50
20656;BME280;10487;53.320;8.672;2023-01-01T11:25:59;101009.25;;;11.39;58.57
20656;BME280;10487;53.320;8.672;2023-01-01T11:29:04;101004.75;;;11.39;58.38
20656;BME280;10487;53.320;8.672;2023-01-01T11:32:34;101004.75;;;11.39;58.38
20656;BME280;10487;53.320;8.672;2023-01-01T11:35:51;101007.66;;;11.36;58.41
20656;BME280;10487;53.320;8.672;2023-01-01T11:42:07;100990.16;;;11.32;58.43
20656;BME280;10487;53.320;8.672;2023-01-01T11:45:24;101002.00;;;11.28;58.30
20656;BME280;10487;53.320;8.672;2023-01-01T11:48:31;101001.28;;;11.26;58.23
20656;BME280;10487;53.320;8.672;2023-01-01T11:51:33;101007.56;;;11.25;57.95
20656;BME280;10487;53.320;8.672;2023-01-01T11:54:35;101009.28;;;11.26;58.29
20656;BME280;10487;53.320;8.672;2023-01-01T11:57:40;100999.25;;;11.30;58.19
20656;BME280;10487;53.320;8.672;2023-01-01T12:00:46;101006.19;;;11.32;58.10
20656;BME280;10487;53.320;8.672;2023-01-01T12:03:57;101033.41;;;11.37;57.96
20656;BME280;10487;53.320;8.672;2023-01-01T12:07:05;101039.59;;;11.38;58.08
20656;BME280;10487;53.320;8.672;2023-01-01T12:10:19;101055.75;;;11.36;57.89
20656;BME280;10487;53.320;8.672;2023-01-01T12:13:27;101039.94;;;11.33;57.95
20656;BME280;10487;53.320;8.672;2023-01-01T12:16:58;101047.19;;;11.31;58.18
20656;BME280;10487;53.320;8.672;2023-01-01T12:20:25;101048.16;;;11.30;58.18
20656;BME280;10487;53.320;8.672;2023-01-01T12:23:26;101042.06;;;11.28;58.00
20656;BME280;10487;53.320;8.672;2023-01-01T12:29:54;101055.75;;;11.24;58.14
20656;BME280;10487;53.320;8.672;2023-01-01T12:47:16;101056.13;;;11.06;57.82
20656;BME280;10487;53.320;8.672;2023-01-01T12:59:27;101069.69;;;10.91;57.97
20656;BME280;10487;53.320;8.672;2023-01-01T13:02:33;101078.88;;;10.87;58.00
20656;BME280;10487;53.320;8.672;2023-01-01T13:05:41;101067.47;;;10.85;57.92
20656;BME280;10487;53.320;8.672;2023-01-01T13:08:48;101070.44;;;10.80;57.99
20656;BME280;10487;53.320;8.672;2023-01-01T13:12:14;101069.91;;;10.75;58.14
20656;BME280;10487;53.320;8.672;2023-01-01T13:18:38;101084.72;;;10.67;57.78
20656;BME280;10487;53.320;8.672;2023-01-01T13:21:39;101100.09;;;10.63;58.02
20656;BME280;10487;53.320;8.672;2023-01-01T13:24:41;101113.66;;;10.60;58.08
20656;BME280;10487;53.320;8.672;2023-01-01T13:30:56;101124.72;;;10.54;57.98
20656;BME280;10487;53.320;8.672;2023-01-01T13:37:40;101131.44;;;10.47;57.92
20656;BME280;10487;53.320;8.672;2023-01-01T13:40:49;101112.06;;;10.43;58.11
20656;BME280;10487;53.320;8.672;2023-01-01T13:43:53;101105.25;;;10.39;57.99
20656;BME280;10487;53.320;8.672;2023-01-01T14:04:59;101136.78;;;10.20;58.12
20656;BME280;10487;53.320;8.672;2023-01-01T14:08:02;101148.38;;;10.19;58.16
20656;BME280;10487;53.320;8.672;2023-01-01T14:11:18;101142.19;;;10.19;57.98
20656;BME280;10487;53.320;8.672;2023-01-01T14:17:24;101155.63;;;10.17;58.06
20656;BME280;10487;53.320;8.672;2023-01-01T14:20:33;101146.78;;;10.17;58.07
20656;BME280;10487;53.320;8.672;2023-01-01T14:23:41;101147.84;;;10.14;57.98
20656;BME280;10487;53.320;8.672;2023-01-01T14:26:44;101155.28;;;10.09;58.08
20656;BME280;10487;53.320;8.672;2023-01-01T14:29:48;101164.44;;;10.05;58.01
20656;BME280;10487;53.320;8.672;2023-01-01T14:32:55;101169.03;;;10.03;58.11
20656;BME280;10487;53.320;8.672;2023-01-01T14:35:59;101168.34;;;10.00;58.03
20656;BME280;10487;53.320;8.672;2023-01-01T14:39:01;101168.47;;;9.98;58.00
20656;BME280;10487;53.320;8.672;2023-01-01T14:42:10;101166.94;;;9.94;58.06
20656;BME280;10487;53.320;8.672;2023-01-01T14:45:16;101177.91;;;9.89;58.13
20656;BME280;10487;53.320;8.672;2023-01-01T14:48:19;101182.47;;;9.87;58.23
20656;BME280;10487;53.320;8.672;2023-01-01T14:51:23;101179.13;;;9.84;58.14
20656;BME280;10487;53.320;8.672;2023-01-01T14:54:30;101179.25;;;9.82;58.12
20656;BME280;10487;53.320;8.672;2023-01-01T14:57:34;101186.50;;;9.80;58.25
20656;BME280;10487;53.320;8.672;2023-01-01T15:00:36;101193.72;;;9.78;58.28
20656;BME280;10487;53.320;8.672;2023-01-01T15:03:38;101201.81;;;9.77;58.07
20656;BME280;10487;53.320;8.672;2023-01-01T15:06:40;101211.59;;;9.76;58.27
20656;BME280;10487;53.320;8.672;2023-01-01T15:09:42;101215.13;;;9.77;58.12
20656;BME280;10487;53.320;8.672;2023-01-01T15:12:43;101216.94;;;9.76;58.29
20656;BME280;10487;53.320;8.672;2023-01-01T15:15:48;101224.91;;;9.76;58.03
20656;BME280;10487;53.320;8.672;2023-01-01T15:18:50;101235.69;;;9.75;58.13
20656;BME280;10487;53.320;8.672;2023-01-01T15:21:53;101224.16;;;9.74;58.22
20656;BME280;10487;53.320;8.672;2023-01-01T15:24:57;101225.13;;;9.73;58.16
20656;BME280;10487;53.320;8.672;2023-01-01T15:27:59;101227.69;;;9.75;58.26
20656;BME280;10487;53.320;8.672;2023-01-01T15:31:01;101213.44;;;9.76;58.14
20656;BME280;10487;53.320;8.672;2023-01-01T15:34:03;101215.22;;;9.75;58.13
20656;BME280;10487;53.320;8.672;2023-01-01T15:37:18;101219.69;;;9.75;58.16
20656;BME280;10487;53.320;8.672;2023-01-01T15:43:26;101211.81;;;9.73;58.13
20656;BME280;10487;53.320;8.672;2023-01-01T15:46:30;101210.09;;;9.72;58.13
20656;BME280;10487;53.320;8.672;2023-01-01T15:49:33;101216.47;;;9.70;58.14
20656;BME280;10487;53.320;8.672;2023-01-01T15:52:35;101225.03;;;9.75;58.34
20656;BME280;10487;53.320;8.672;2023-01-01T15:55:42;101211.41;;;9.79;58.12
20656;BME280;10487;53.320;8.672;2023-01-01T15:59:03;101214.94;;;9.80;58.15
20656;BME280;10487;53.320;8.672;2023-01-01T16:02:19;101216.84;;;9.78;58.07
20656;BME280;10487;53.320;8.672;2023-01-01T16:05:23;101217.03;;;9.75;58.11
20656;BME280;10487;53.320;8.672;2023-01-01T16:08:26;101211.81;;;9.73;58.08
20656;BME280;10487;53.320;8.672;2023-01-01T16:11:27;101214.66;;;9.70;58.29
20656;BME280;10487;53.320;8.672;2023-01-01T16:14:29;101220.94;;;9.69;58.02
20656;BME280;10487;53.320;8.672;2023-01-01T16:17:31;101219.25;;;9.68;58.10
20656;BME280;10487;53.320;8.672;2023-01-01T16:20:34;101221.81;;;9.70;58.11
20656;BME280;10487;53.320;8.672;2023-01-01T16:23:35;101211.13;;;9.70;58.17
20656;BME280;10487;53.320;8.672;2023-01-01T16:26:37;101220.00;;;9.70;58.06
20656;BME280;10487;53.320;8.672;2023-01-01T16:29:39;101220.00;;;9.70;58.06
20656;BME280;10487;53.320;8.672;2023-01-01T16:32:44;101215.59;;;9.69;58.15
20656;BME280;10487;53.320;8.672;2023-01-01T16:35:46;101213.13;;;9.66;58.15
20656;BME280;10487;53.320;8.672;2023-01-01T16:38:47;101211.50;;;9.64;58.02
20656;BME280;10487;53.320;8.672;2023-01-01T16:41:49;101208.09;;;9.62;58.18
20656;BME280;10487;53.320;8.672;2023-01-01T16:44:50;101204.56;;;9.61;58.10
20656;BME280;10487;53.320;8.672;2023-01-01T16:47:52;101208.28;;;9.59;58.10
20656;BME280;10487;53.320;8.672;2023-01-01T16:50:55;101203.06;;;9.57;58.15
20656;BME280;10487;53.320;8.672;2023-01-01T16:53:57;101200.28;;;9.59;58.18
20656;BME280;10487;53.320;8.672;2023-01-01T16:57:01;101211.91;;;9.58;58.16
20656;BME280;10487;53.320;8.672;2023-01-01T17:00:03;101205.72;;;9.57;58.15
20656;BME280;10487;53.320;8.672;2023-01-01T17:03:04;101222.56;;;9.58;58.19
20656;BME280;10487;53.320;8.672;2023-01-01T17:06:08;101219.16;;;9.56;58.26
20656;BME280;10487;53.320;8.672;2023-01-01T17:09:09;101213.88;;;9.54;58.23
20656;BME280;10487;53.320;8.672;2023-01-01T17:12:11;101216.66;;;9.53;58.26
20656;BME280;10487;53.320;8.672;2023-01-01T17:15:13;101226.34;;;9.54;58.30
20656;BME280;10487;53.320;8.672;2023-01-01T17:18:15;101208.66;;;9.53;58.28
20656;BME280;10487;53.320;8.672;2023-01-01T17:21:17;101214.00;;;9.53;58.31
20656;BME280;10487;53.320;8.672;2023-01-01T17:24:19;101216.66;;;9.53;58.24
20656;BME280;10487;53.320;8.672;2023-01-01T17:27:21;101225.59;;;9.52;58.33
20656;BME280;10487;53.320;8.672;2023-01-01T17:30:23;101228.25;;;9.52;58.35
20656;BME280;10487;53.320;8.672;2023-01-01T17:33:24;101238.16;;;9.50;58.25
20656;BME280;10487;53.320;8.672;2023-01-01T17:36:26;101231.13;;;9.49;58.43
20656;BME280;10487;53.320;8.672;2023-01-01T17:39:28;101249.78;;;9.49;58.33
20656;BME280;10487;53.320;8.672;2023-01-01T17:42:29;101249.69;;;9.50;58.47
20656;BME280;10487;53.320;8.672;2023-01-01T17:45:35;101237.22;;;9.51;58.47
20656;BME280;10487;53.320;8.672;2023-01-01T17:48:37;101231.88;;;9.51;58.47
20656;BME280;10487;53.320;8.672;2023-01-01T17:51:39;101226.56;;;9.51;58.40
20656;BME280;10487;53.320;8.672;2023-01-01T17:54:40;101226.56;;;9.51;58.35
20656;BME280;10487;53.320;8.672;2023-01-01T17:57:42;101232.81;;;9.50;58.29